Terminal Aerodrome Forecast
Issued by NWS

Home | Current Version | Previous Version | Text Only | Print | Product List | Glossary On
Versions: 1 2 3 4 5 6 7 8 9 10 11 12 13 14 15 16 17 18 19 20 21 22
000
FTUS43 KICT 221320 AAA
TAFCNU
TAF AMD
KCNU 221320Z 2213/2312 17013KT 6SM BR VCSH BKN008 OVC012
      TEMPO 2213/2217 3SM BR OVC003
     FM221700 18016KT 4SM TSRA BR BKN017CB
     FM222000 17013KT 4SM BR VCTS BKN007 OVC015CB=

USA.gov is the U.S. government's official web portal to all federal, state and local government web resources and services.